Time;durP1;ratioP1;P1;durP2;ratioP2;P2;SDS_P1;SDS_P2;PMS_P1;PMS_P2;Temp;Humidity;BMP_temperature;BMP_pressure;BME280_temperature;BME280_humidity;BME280_pressure;Samples;Min_cycle;Max_cycle;Signal;HPM_P1;HPM_P2
2023/11/03 00:00:00;;;;;;;6.10;4.50;;;;;;;13.99;99.33;97851.95;108841;1279;22014;-81
2023/11/03 00:03:00;;;;;;;6.50;4.70;;;;;;;13.98;99.94;97842.60;109064;1280;22456;-82
2023/11/03 00:05:45;;;;;;;8.10;5.10;;;;;;;13.97;100.00;97818.76;108965;1279;22065;-82
2023/11/03 00:08:39;;;;;;;11.30;5.50;;;;;;;13.95;100.00;97807.25;108914;1279;24008;-80
2023/11/03 00:11:23;;;;;;;8.70;5.20;;;;;;;13.89;100.00;97797.83;108852;1273;22814;-81
2023/11/03 00:14:06;;;;;;;8.20;5.40;;;;;;;13.86;100.00;97790.39;104926;1272;5930043;-80
2023/11/03 00:16:52;;;;;;;8.40;5.30;;;;;;;13.84;100.00;97789.55;109566;1272;21996;-79
2023/11/03 00:19:30;;;;;;;8.40;5.20;;;;;;;13.82;100.00;97802.83;109493;1272;24322;-78
2023/11/03 00:22:13;;;;;;;9.00;4.60;;;;;;;13.78;100.00;97811.98;109308;1272;21964;-80
2023/11/03 00:24:55;;;;;;;6.30;4.70;;;;;;;13.72;100.00;97808.14;109329;1267;21977;-80
2023/11/03 00:27:46;;;;;;;8.10;4.70;;;;;;;13.64;100.00;97795.59;109514;1272;23058;-78
2023/11/03 00:30:19;;;;;;;6.70;4.70;;;;;;;13.59;100.00;97792.90;109007;1279;21989;-79
2023/11/03 00:32:53;;;;;;;7.90;5.50;;;;;;;13.53;100.00;97795.66;108972;1279;22450;-79
2023/11/03 00:35:31;;;;;;;8.10;5.40;;;;;;;13.51;100.00;97801.15;109002;1279;23711;-79
2023/11/03 00:38:13;;;;;;;10.20;5.60;;;;;;;13.47;100.00;97811.23;108851;1279;22987;-81
2023/11/03 00:40:47;;;;;;;7.00;4.70;;;;;;;13.46;100.00;97812.73;109021;1279;22262;-80
2023/11/03 00:43:26;;;;;;;7.40;4.80;;;;;;;13.45;100.00;97810.34;108795;1279;23794;-80
2023/11/03 00:46:02;;;;;;;10.90;5.80;;;;;;;13.46;100.00;97801.23;109069;1279;22003;-79
2023/11/03 00:48:46;;;;;;;6.20;4.60;;;;;;;13.42;100.00;97806.06;108856;1280;22072;-80
2023/11/03 00:51:34;;;;;;;6.60;4.80;;;;;;;13.40;100.00;97800.65;108972;1280;22689;-81
2023/11/03 00:54:18;;;;;;;5.80;4.50;;;;;;;13.38;100.00;97791.42;109001;1280;22702;-80
2023/11/03 00:57:06;;;;;;;7.10;4.60;;;;;;;13.38;100.00;97794.23;109043;1280;22755;-81
2023/11/03 00:59:44;;;;;;;14.00;5.30;;;;;;;13.38;100.00;97797.56;109008;1280;23724;-80
2023/11/03 01:02:22;;;;;;;7.10;4.90;;;;;;;13.41;100.00;97796.58;108954;1280;22750;-81
2023/11/03 01:05:23;;;;;;;9.60;4.40;;;;;;;13.42;100.00;97790.54;108823;1280;23718;-81
2023/11/03 01:07:58;;;;;;;7.10;4.50;;;;;;;13.36;100.00;97767.01;109365;1272;23050;-81
2023/11/03 01:10:47;;;;;;;7.40;4.40;;;;;;;13.41;100.00;97766.17;108976;1278;22775;-82
2023/11/03 01:13:29;;;;;;;6.50;3.70;;;;;;;13.39;100.00;97752.20;108705;1283;22007;-81
2023/11/03 01:16:08;;;;;;;6.50;4.20;;;;;;;13.37;100.00;97748.59;108723;1282;23062;-83
2023/11/03 01:18:45;;;;;;;5.80;3.90;;;;;;;13.33;100.00;97746.09;108610;1282;23071;-82
2023/11/03 01:21:32;;;;;;;7.40;4.40;;;;;;;13.35;100.00;97747.69;108711;1282;21999;-81
2023/11/03 01:24:10;;;;;;;6.70;3.90;;;;;;;13.35;100.00;97740.17;108710;1276;22992;-82
2023/11/03 01:26:49;;;;;;;5.90;4.40;;;;;;;13.33;100.00;97727.79;108569;1282;23877;-81
2023/11/03 01:29:43;;;;;;;;;;;;;;;;;;;;;
2023/11/03 01:32:39;;;;;;;7.70;4.80;;;;;;;13.23;100.00;97737.45;109530;1272;21979;-80
2023/11/03 01:35:22;;;;;;;9.70;4.00;;;;;;;13.19;100.00;97739.52;109085;1276;23624;-81
2023/11/03 01:38:00;;;;;;;6.40;4.10;;;;;;;13.15;100.00;97739.19;109287;1276;21976;-80
2023/11/03 01:40:33;;;;;;;7.50;4.10;;;;;;;13.10;100.00;97743.13;109279;1276;21959;-80
2023/11/03 01:43:07;;;;;;;9.00;4.50;;;;;;;13.05;100.00;97751.36;109068;1273;21991;-80
2023/11/03 01:46:05;;;;;;;5.70;4.30;;;;;;;13.02;100.00;97750.40;109173;1276;21987;-80
2023/11/03 01:48:58;;;;;;;5.90;4.20;;;;;;;13.00;100.00;97746.40;109235;1276;21991;-81
2023/11/03 01:51:36;;;;;;;6.90;4.30;;;;;;;12.98;100.00;97737.04;108772;1282;23052;-79
2023/11/03 01:54:17;;;;;;;5.20;3.80;;;;;;;12.94;100.00;97729.17;108950;1278;22000;-79
2023/11/03 01:56:56;;;;;;;8.70;4.00;;;;;;;12.88;100.00;97714.36;109035;1278;21985;-79
2023/11/03 01:59:53;;;;;;;5.40;4.00;;;;;;;12.92;100.00;97731.65;108664;1282;22072;-79
2023/11/03 02:02:35;;;;;;;5.20;3.60;;;;;;;12.90;100.00;97729.20;108718;1282;22014;-79
2023/11/03 02:05:13;;;;;;;4.30;3.60;;;;;;;12.84;100.00;97717.34;108504;1273;22190;-79
2023/11/03 02:07:55;;;;;;;6.30;4.40;;;;;;;12.94;100.00;97728.52;108761;1282;22022;-80
2023/11/03 02:10:29;;;;;;;5.30;3.80;;;;;;;12.96;100.00;97722.02;108758;1283;23840;-80
2023/11/03 02:13:15;;;;;;;4.80;3.30;;;;;;;13.01;100.00;97714.63;108794;1283;22042;-82
2023/11/03 02:15:51;;;;;;;5.10;3.30;;;;;;;13.01;100.00;97717.35;108750;1283;22018;-79
2023/11/03 02:18:30;;;;;;;7.40;3.90;;;;;;;13.05;100.00;97720.30;108408;1282;22051;-79
2023/11/03 02:21:07;;;;;;;4.90;3.50;;;;;;;13.07;100.00;97716.63;108407;1289;22011;-79
2023/11/03 02:23:53;;;;;;;7.90;3.70;;;;;;;13.09;100.00;97715.27;108288;1285;22095;-80
2023/11/03 02:27:00;;;;;;;4.20;3.80;;;;;;;13.06;100.00;97711.48;108694;1285;22003;-79
2023/11/03 02:29:55;;;;;;;6.70;3.60;;;;;;;13.06;100.00;97710.24;108455;1285;23746;-79
2023/11/03 02:32:30;;;;;;;5.90;3.70;;;;;;;13.06;100.00;97701.04;108586;1285;22895;-80
2023/11/03 02:35:16;;;;;;;6.00;3.90;;;;;;;13.05;100.00;97702.88;108730;1281;22012;-79
2023/11/03 02:38:02;;;;;;;5.20;3.60;;;;;;;13.05;100.00;97699.52;109129;1275;24326;-80
2023/11/03 02:40:47;;;;;;;6.10;3.30;;;;;;;13.06;100.00;97693.02;109299;1276;22009;-80
2023/11/03 02:43:29;;;;;;;7.00;3.40;;;;;;;13.05;100.00;97693.45;108887;1280;22931;-81
2023/11/03 02:46:11;;;;;;;4.10;3.60;;;;;;;13.07;100.00;97687.33;108787;1273;23719;-81
2023/11/03 02:48:54;;;;;;;6.40;4.30;;;;;;;13.10;100.00;97688.60;108781;1277;22022;-80
2023/11/03 02:51:36;;;;;;;7.80;3.70;;;;;;;13.09;100.00;97689.20;108863;1277;22023;-81
2023/11/03 02:54:25;;;;;;;3.90;3.40;;;;;;;13.09;100.00;97674.58;108827;1274;22727;-80
2023/11/03 02:57:02;;;;;;;6.00;4.10;;;;;;;13.08;100.00;97672.19;108658;1277;22771;-80
2023/11/03 02:59:36;;;;;;;7.80;4.20;;;;;;;13.06;100.00;97668.17;108466;1284;21987;-81
2023/11/03 03:02:30;;;;;;;4.40;3.20;;;;;;;13.04;100.00;97670.44;108505;1274;21991;-78
2023/11/03 03:05:09;;;;;;;7.40;3.50;;;;;;;13.00;100.00;97676.48;108627;1285;22415;-81
2023/11/03 03:07:58;;;;;;;9.00;3.80;;;;;;;12.97;100.00;97676.92;108320;1285;22050;-79
2023/11/03 03:10:32;;;;;;;4.10;3.10;;;;;;;12.94;100.00;97680.61;108341;1288;23155;-80
2023/11/03 03:13:29;;;;;;;6.60;3.90;;;;;;;12.90;100.00;97686.46;108410;1288;23653;-81
2023/11/03 03:16:12;;;;;;;7.20;3.80;;;;;;;12.84;100.00;97679.29;108383;1286;22038;-79
2023/11/03 03:18:51;;;;;;;7.80;4.20;;;;;;;12.75;100.00;97672.36;108301;1289;22002;-79
2023/11/03 03:21:29;;;;;;;5.60;4.20;;;;;;;12.74;100.00;97679.84;108476;1285;23013;-80
2023/11/03 03:24:37;;;;;;;8.70;4.40;;;;;;;12.61;100.00;97678.36;108440;1279;23059;-80
2023/11/03 03:27:54;;;;;;;7.40;4.40;;;;;;;12.47;100.00;97671.38;108789;1274;22048;-81
2023/11/03 03:30:54;;;;;;;5.60;3.40;;;;;;;12.31;100.00;97667.87;108635;1285;22103;-84
2023/11/03 03:33:39;;;;;;;8.50;5.00;;;;;;;12.16;100.00;97668.12;108381;1287;22025;-84
2023/11/03 03:40:36;;;;;;;4.80;4.30;;;;;;;11.99;100.00;97661.30;107958;1292;23762;-80
2023/11/03 03:43:29;;;;;;;6.90;4.60;;;;;;;11.90;100.00;97660.42;108062;1289;23712;-81
2023/11/03 03:46:17;;;;;;;6.50;5.30;;;;;;;11.87;100.00;97657.92;108147;1289;22408;-81
2023/11/03 03:49:13;;;;;;;9.90;6.60;;;;;;;11.86;100.00;97655.03;108357;1287;22005;-80
2023/11/03 03:51:58;;;;;;;5.90;4.80;;;;;;;11.85;100.00;97654.61;108577;1284;22024;-81
2023/11/03 03:54:37;;;;;;;7.30;5.80;;;;;;;11.86;100.00;97647.55;108561;1284;22009;-81
2023/11/03 03:57:29;;;;;;;7.50;5.50;;;;;;;11.87;100.00;97643.79;108738;1280;24169;-82
2023/11/03 04:00:13;;;;;;;7.20;5.70;;;;;;;11.88;100.00;97639.34;108803;1279;22284;-80
2023/11/03 04:03:12;;;;;;;8.70;7.50;;;;;;;11.89;100.00;97636.11;108813;1282;21977;-83
2023/11/03 04:06:11;;;;;;;153.80;102.40;;;;;;;11.91;100.00;97630.59;108546;1286;22011;-81
2023/11/03 04:08:58;;;;;;;73.10;59.20;;;;;;;11.92;100.00;97626.86;108424;1286;22801;-82
2023/11/03 04:11:54;;;;;;;47.80;39.50;;;;;;;11.92;100.00;97625.98;108465;1288;22005;-83
2023/11/03 04:14:55;;;;;;;42.40;35.50;;;;;;;11.92;100.00;97624.51;108711;1285;23126;-83
2023/11/03 04:17:40;;;;;;;41.90;37.50;;;;;;;11.95;100.00;97618.21;108474;1291;22506;-83
2023/11/03 04:23:58;;;;;;;17.10;14.20;;;;;;;11.99;100.00;97611.76;108537;1287;22359;-81
2023/11/03 04:26:39;;;;;;;46.70;39.10;;;;;;;12.03;100.00;97608.26;108280;1286;22952;-81
2023/11/03 04:29:48;;;;;;;24.50;20.50;;;;;;;12.07;100.00;97597.58;108716;1285;22027;-82
2023/11/03 04:32:25;;;;;;;47.70;38.40;;;;;;;12.12;100.00;97591.09;108530;1280;22067;-79
2023/11/03 04:35:18;;;;;;;38.00;28.70;;;;;;;12.16;100.00;97590.60;108747;1279;23667;-81
2023/11/03 04:38:11;;;;;;;8.40;6.40;;;;;;;12.15;100.00;97590.19;109005;1279;21994;-80
2023/11/03 04:40:59;;;;;;;35.60;22.40;;;;;;;12.13;100.00;97581.59;108913;1279;21994;-80
2023/11/03 04:43:43;;;;;;;14.00;11.50;;;;;;;12.11;100.00;97573.09;108719;1273;21992;-79
2023/11/03 04:46:40;;;;;;;7.90;4.90;;;;;;;12.18;100.00;97583.25;109279;1272;21976;-81
2023/11/03 04:49:17;;;;;;;10.30;7.00;;;;;;;12.20;100.00;97576.77;108849;1278;22207;-80
2023/11/03 04:52:13;;;;;;;7.80;4.60;;;;;;;12.23;100.00;97573.02;109144;1277;21950;-81
2023/11/03 04:54:47;;;;;;;6.00;4.20;;;;;;;12.26;100.00;97575.75;108895;1277;22076;-77
2023/11/03 04:57:33;;;;;;;5.40;4.40;;;;;;;12.30;100.00;97577.45;108991;1277;23661;-78
2023/11/03 05:00:28;;;;;;;6.60;4.40;;;;;;;12.34;100.00;97584.48;109052;1277;23642;-78
2023/11/03 05:03:20;;;;;;;8.60;4.10;;;;;;;12.36;100.00;97590.21;108894;1279;21986;-80
2023/11/03 05:06:28;;;;;;;7.00;4.00;;;;;;;12.34;100.00;97581.67;108759;1269;21982;-80
2023/11/03 05:09:21;;;;;;;4.40;3.30;;;;;;;12.34;100.00;97586.33;109054;1276;23605;-80
2023/11/03 05:12:16;;;;;;;6.70;3.90;;;;;;;12.35;100.00;97583.65;109075;1278;22019;-78
2023/11/03 05:14:57;;;;;;;6.40;3.80;;;;;;;12.37;100.00;97582.81;108739;1277;23135;-78
2023/11/03 05:17:48;;;;;;;6.80;4.10;;;;;;;12.31;100.00;97571.50;109148;1278;22550;-80
2023/11/03 05:20:33;;;;;;;8.30;3.80;;;;;;;12.37;100.00;97584.69;108799;1282;23008;-81
2023/11/03 05:23:21;;;;;;;5.30;3.40;;;;;;;12.37;100.00;97591.00;108929;1282;21989;-80
2023/11/03 05:26:14;;;;;;;7.00;4.60;;;;;;;12.38;100.00;97594.39;108834;1280;22510;-81
2023/11/03 05:29:03;;;;;;;8.00;3.90;;;;;;;12.40;100.00;97595.56;108915;1281;23093;-82
2023/11/03 05:32:02;;;;;;;9.40;4.00;;;;;;;12.40;100.00;97598.03;109128;1278;23114;-80
2023/11/03 05:34:53;;;;;;;6.20;4.00;;;;;;;12.40;100.00;97594.44;109118;1278;22038;-80
2023/11/03 05:37:50;;;;;;;7.80;4.80;;;;;;;12.41;100.00;97595.89;109129;1271;22301;-81
2023/11/03 05:40:38;;;;;;;7.00;4.80;;;;;;;12.42;100.00;97602.77;109557;1271;21976;-80
2023/11/03 05:43:32;;;;;;;6.40;4.10;;;;;;;12.44;100.00;97610.75;109753;1271;21983;-81
2023/11/03 05:46:25;;;;;;;5.50;4.70;;;;;;;12.45;100.00;97620.42;109640;1271;22017;-82
2023/11/03 05:49:07;;;;;;;5.60;4.40;;;;;;;12.44;100.00;97623.83;109600;1271;23759;-80
2023/11/03 05:51:49;;;;;;;6.80;4.80;;;;;;;12.42;100.00;97615.63;109722;1271;22083;-80
2023/11/03 05:54:42;;;;;;;5.90;5.00;;;;;;;12.38;100.00;97609.67;109607;1271;23860;-80
2023/11/03 05:57:34;;;;;;;6.80;4.80;;;;;;;12.34;100.00;97613.42;109176;1276;21999;-82
2023/11/03 06:00:16;;;;;;;5.10;4.30;;;;;;;12.31;100.00;97619.29;108750;1282;22085;-80
2023/11/03 06:02:52;;;;;;;4.40;3.90;;;;;;;12.31;100.00;97619.58;108769;1281;21991;-82
2023/11/03 06:05:44;;;;;;;;;;;;;;;12.31;100.00;97618.02;108732;1282;22653;-81
2023/11/03 06:08:16;;;;;;;9.30;5.70;;;;;;;12.21;100.00;97616.10;108481;1287;22391;-79
2023/11/03 06:11:07;;;;;;;7.40;5.10;;;;;;;12.18;100.00;97612.67;108007;1287;23075;-81
2023/11/03 06:13:51;;;;;;;7.50;4.90;;;;;;;12.18;100.00;97612.39;107997;1278;22019;-82
2023/11/03 06:16:43;;;;;;;7.90;5.50;;;;;;;12.11;100.00;97594.48;107948;1291;22697;-81
2023/11/03 06:19:29;;;;;;;9.90;6.00;;;;;;;12.19;100.00;97606.73;108079;1290;22025;-80
2023/11/03 06:22:28;;;;;;;10.80;6.20;;;;;;;12.16;100.00;97613.06;108355;1288;22011;-81
2023/11/03 06:25:03;;;;;;;10.60;5.60;;;;;;;12.15;100.00;97608.11;108416;1286;22364;-81
2023/11/03 06:27:37;;;;;;;8.10;5.40;;;;;;;12.16;100.00;97606.84;108613;1284;21974;-81
2023/11/03 06:30:24;;;;;;;8.80;6.80;;;;;;;12.15;100.00;97605.48;108809;1278;23158;-80
2023/11/03 06:33:09;;;;;;;6.90;5.10;;;;;;;12.14;100.00;97606.09;108741;1279;22010;-81
2023/11/03 06:35:57;;;;;;;9.40;6.30;;;;;;;12.09;100.00;97591.88;108823;1281;23068;-80
2023/11/03 06:38:38;;;;;;;8.30;6.20;;;;;;;12.13;100.00;97601.46;109208;1273;22142;-80
2023/11/03 06:41:15;;;;;;;6.30;4.90;;;;;;;12.15;100.00;97606.87;108855;1280;23676;-80
2023/11/03 06:43:53;;;;;;;7.90;4.40;;;;;;;12.16;100.00;97614.30;108691;1284;24405;-80
2023/11/03 06:46:38;;;;;;;6.30;5.40;;;;;;;12.15;100.00;97614.69;108695;1279;22005;-80
2023/11/03 06:49:29;;;;;;;12.40;10.20;;;;;;;12.18;100.00;97609.96;108734;1284;22014;-81
2023/11/03 06:52:09;;;;;;;21.20;12.80;;;;;;;12.20;100.00;97611.34;108860;1280;23746;-80
2023/11/03 06:54:53;;;;;;;14.20;6.50;;;;;;;12.22;100.00;97605.05;108709;1281;22037;-78
2023/11/03 06:57:32;;;;;;;8.10;5.40;;;;;;;12.22;100.00;97600.84;108703;1281;23766;-80
2023/11/03 07:00:14;;;;;;;9.70;6.20;;;;;;;12.21;100.00;97598.34;109063;1275;22035;-86
2023/11/03 07:03:05;;;;;;;7.10;6.00;;;;;;;12.22;100.00;97596.84;109138;1271;23697;-81
2023/11/03 07:05:49;;;;;;;8.40;5.50;;;;;;;12.22;100.00;97601.70;109527;1271;23047;-81
2023/11/03 07:08:30;;;;;;;8.30;6.30;;;;;;;12.25;100.00;97612.11;109553;1271;21980;-80
2023/11/03 07:11:12;;;;;;;9.60;6.70;;;;;;;12.26;100.00;97616.85;109548;1271;22009;-79
2023/11/03 07:14:18;;;;;;;8.40;6.40;;;;;;;12.29;100.00;97619.94;109035;1276;21999;-81
2023/11/03 07:17:07;;;;;;;9.10;6.50;;;;;;;12.27;100.00;97615.91;109151;1276;23007;-79
2023/11/03 07:19:49;;;;;;;9.90;6.40;;;;;;;12.27;100.00;97615.61;109228;1276;22009;-79
2023/11/03 07:22:38;;;;;;;7.20;6.10;;;;;;;12.28;100.00;97621.97;108762;1276;21985;-80
2023/11/03 07:25:45;;;;;;;8.10;6.40;;;;;;;12.24;100.00;97620.87;109111;1276;21994;-78
2023/11/03 07:28:23;;;;;;;10.60;6.20;;;;;;;12.24;100.00;97612.22;108849;1280;22195;-81
2023/11/03 07:31:10;;;;;;;10.80;7.60;;;;;;;12.26;100.00;97618.30;108514;1281;22064;-81
2023/11/03 07:33:55;;;;;;;9.10;7.10;;;;;;;12.27;100.00;97620.77;108805;1281;22477;-80
2023/11/03 07:36:39;;;;;;;12.40;7.10;;;;;;;12.26;100.00;97618.83;108706;1276;22007;-79
2023/11/03 07:39:29;;;;;;;7.50;6.80;;;;;;;12.23;100.00;97612.45;108813;1281;22008;-80
2023/11/03 07:42:10;;;;;;;13.80;7.80;;;;;;;12.23;100.00;97620.13;108294;1288;22101;-79
2023/11/03 07:44:46;;;;;;;13.60;7.70;;;;;;;12.23;100.00;97620.47;108171;1292;23094;-79
2023/11/03 07:47:31;;;;;;;9.10;6.80;;;;;;;12.21;100.00;97620.30;108423;1282;22019;-80
2023/11/03 07:50:14;;;;;;;9.50;7.40;;;;;;;12.19;100.00;97622.74;108651;1284;22009;-80
2023/11/03 07:53:08;;;;;;;11.50;9.80;;;;;;;12.20;100.00;97621.08;108530;1284;21983;-81
2023/11/03 07:55:40;;;;;;;;;;;;;;;12.20;100.00;97627.15;108708;1284;21977;-79
2023/11/03 07:58:23;;;;;;;10.30;9.10;;;;;;;12.12;100.00;97632.89;108705;1271;21996;-81
2023/11/03 08:01:11;;;;;;;9.90;7.60;;;;;;;12.11;100.00;97634.21;108941;1277;23663;-80
2023/11/03 08:03:50;;;;;;;8.10;7.10;;;;;;;12.14;100.00;97636.81;109140;1272;22445;-79
2023/11/03 08:06:24;;;;;;;7.50;6.50;;;;;;;12.15;100.00;97635.66;109517;1272;21997;-79
2023/11/03 08:09:11;;;;;;;8.70;7.10;;;;;;;12.17;100.00;97637.39;108875;1278;23069;-79
2023/11/03 08:11:51;;;;;;;11.20;8.10;;;;;;;12.19;100.00;97633.73;109039;1270;21995;-79
2023/11/03 08:14:29;;;;;;;8.30;7.20;;;;;;;12.21;100.00;97632.69;109052;1278;21995;-81
2023/11/03 08:17:03;;;;;;;12.30;7.10;;;;;;;12.21;100.00;97632.71;109046;1278;22011;-78
2023/11/03 08:19:34;;;;;;;13.10;9.50;;;;;;;12.20;100.00;97637.62;108811;1278;22008;-76
2023/11/03 08:22:11;;;;;;;8.90;7.80;;;;;;;12.21;100.00;97640.20;109025;1279;21994;-80
2023/11/03 08:24:45;;;;;;;9.60;7.40;;;;;;;12.21;100.00;97643.48;108857;1278;22570;-80
2023/11/03 08:27:30;;;;;;;;;;;;;;;;;;;;;
2023/11/03 08:30:23;;;;;;;;;;;;;;;;;;;;;
2023/11/03 08:33:12;;;;;;;7.60;6.80;;;;;;;12.20;100.00;97633.80;109489;1272;22469;-81
2023/11/03 08:35:50;;;;;;;10.40;8.60;;;;;;;12.22;100.00;97632.09;109552;1272;22025;-85
2023/11/03 08:38:25;;;;;;;10.80;8.40;;;;;;;12.28;100.00;97634.14;109745;1261;22007;-85
2023/11/03 08:41:19;;;;;;;9.50;8.10;;;;;;;12.31;100.00;97633.88;109441;1271;23636;-85
2023/11/03 08:45:08;;;;;;;7.30;6.60;;;;;;;12.30;100.00;97632.44;109190;1280;22003;-86
2023/11/03 08:48:09;;;;;;;10.30;7.80;;;;;;;12.28;100.00;97626.16;109042;1282;22750;-84
2023/11/03 08:51:12;;;;;;;10.90;7.20;;;;;;;12.30;100.00;97634.83;108759;1282;22881;-83
2023/11/03 08:53:48;;;;;;;16.80;14.00;;;;;;;12.37;100.00;97637.52;108822;1281;23647;-84
2023/11/03 08:56:28;;;;;;;17.70;14.30;;;;;;;12.44;100.00;97634.98;108635;1285;23743;-84
2023/11/03 08:59:20;;;;;;;16.90;13.40;;;;;;;12.51;100.00;97634.73;108638;1281;22835;-84
2023/11/03 09:02:09;;;;;;;17.40;13.10;;;;;;;12.57;100.00;97638.61;108428;1287;22008;-83
2023/11/03 09:04:53;;;;;;;15.40;10.10;;;;;;;12.63;100.00;97637.86;108378;1287;22007;-84
2023/11/03 09:08:19;;;;;;;14.80;11.50;;;;;;;12.66;100.00;97641.80;108270;1287;22020;-85
2023/11/03 09:11:10;;;;;;;15.60;13.10;;;;;;;12.67;100.00;97641.87;108343;1289;22007;-85
2023/11/03 09:14:04;;;;;;;15.80;8.90;;;;;;;12.70;100.00;97638.31;108377;1285;22000;-86
2023/11/03 09:16:54;;;;;;;14.70;11.80;;;;;;;12.73;100.00;97638.38;108756;1282;22007;-78
2023/11/03 09:19:38;;;;;;;22.10;16.50;;;;;;;12.75;100.00;97634.58;108503;1282;22011;-81
2023/11/03 09:22:43;;;;;;;18.90;16.70;;;;;;;12.75;100.00;97638.40;108712;1280;23643;-83
2023/11/03 09:26:04;;;;;;;13.80;12.30;;;;;;;12.76;100.00;97641.92;108759;1281;22099;-83
2023/11/03 09:29:12;;;;;;;10.90;9.20;;;;;;;12.76;100.00;97640.36;108911;1281;22997;-82
2023/11/03 09:31:55;;;;;;;11.10;8.70;;;;;;;12.79;100.00;97635.54;108723;1274;21977;-82
2023/11/03 09:35:01;;;;;;;15.10;9.50;;;;;;;12.83;100.00;97638.37;108181;1286;21967;-82
2023/11/03 09:38:20;;;;;;;9.70;8.70;;;;;;;12.83;100.00;97630.32;108153;1293;23053;-83
2023/11/03 09:41:15;;;;;;;9.00;7.10;;;;;;;12.79;100.00;97618.29;107578;1297;22052;-84
2023/11/03 09:44:08;;;;;;;10.40;7.60;;;;;;;12.76;100.00;97609.46;107748;1297;22012;-85
2023/11/03 09:47:05;;;;;;;8.10;7.30;;;;;;;12.74;100.00;97604.28;107587;1297;22037;-84
2023/11/03 09:49:41;;;;;;;10.30;7.90;;;;;;;12.75;100.00;97601.38;107860;1292;22035;-82
2023/11/03 09:52:29;;;;;;;8.30;7.50;;;;;;;12.77;100.00;97594.89;108017;1292;23643;-83
2023/11/03 09:55:34;;;;;;;8.30;7.50;;;;;;;12.74;100.00;97588.52;108248;1292;23656;-82
2023/11/03 09:58:29;;;;;;;9.50;7.90;;;;;;;12.71;100.00;97586.68;108198;1291;22177;-83
2023/11/03 10:01:08;;;;;;;10.40;7.70;;;;;;;12.68;100.00;97585.59;108257;1292;23634;-83
2023/11/03 10:03:54;;;;;;;8.60;7.40;;;;;;;12.68;100.00;97580.57;108446;1292;22032;-80
2023/11/03 10:06:46;;;;;;;9.20;8.30;;;;;;;12.67;100.00;97578.04;108904;1283;22181;-82
2023/11/03 10:09:35;;;;;;;11.20;8.40;;;;;;;12.66;100.00;97575.98;108883;1280;21996;-82
2023/11/03 10:12:24;;;;;;;8.00;7.20;;;;;;;12.66;100.00;97570.43;109307;1272;22686;-83
2023/11/03 10:15:10;;;;;;;10.50;8.30;;;;;;;12.64;100.00;97564.81;109619;1272;22007;-84
2023/11/03 10:17:58;;;;;;;13.50;8.20;;;;;;;12.66;100.00;97558.70;109241;1279;21587;-82
2023/11/03 10:20:51;;;;;;;10.50;9.30;;;;;;;12.71;100.00;97553.25;108874;1284;23077;-84
2023/11/03 10:23:51;;;;;;;12.60;8.70;;;;;;;12.73;100.00;97553.60;108500;1288;22132;-83
2023/11/03 10:27:14;;;;;;;;;;;;;;;;;;;;;
2023/11/03 10:30:02;;;;;;;11.10;9.60;;;;;;;12.69;100.00;97548.31;108169;1287;22023;-83
2023/11/03 10:32:47;;;;;;;12.80;11.20;;;;;;;12.69;100.00;97543.11;107938;1293;22044;-83
2023/11/03 10:35:44;;;;;;;15.60;14.10;;;;;;;12.70;100.00;97540.55;107588;1294;22971;-84
2023/11/03 10:38:38;;;;;;;15.30;13.90;;;;;;;12.70;100.00;97539.02;108107;1290;23061;-82
2023/11/03 10:41:32;;;;;;;;;;;;;;;12.68;100.00;97529.22;108255;1288;22745;-84
2023/11/03 10:48:33;;;;;;;13.90;11.30;;;;;;;12.53;100.00;97522.45;108865;1280;22013;-83
2023/11/03 10:51:40;;;;;;;15.10;13.40;;;;;;;12.50;100.00;97516.58;108752;1280;21989;-83
2023/11/03 10:55:10;;;;;;;17.40;15.70;;;;;;;12.41;100.00;97500.42;109389;1273;21991;-81
2023/11/03 10:57:58;;;;;;;15.60;13.90;;;;;;;12.48;100.00;97507.35;109304;1273;21893;-84
2023/11/03 11:01:26;;;;;;;16.70;13.20;;;;;;;12.47;100.00;97507.41;109474;1272;21995;-82
2023/11/03 11:04:21;;;;;;;12.70;9.90;;;;;;;12.43;100.00;97500.27;109449;1268;22005;-82
2023/11/03 11:07:09;;;;;;;12.50;9.90;;;;;;;12.41;100.00;97494.03;109113;1277;22011;-82
2023/11/03 11:10:04;;;;;;;18.40;15.40;;;;;;;12.35;100.00;97481.61;109177;1277;21986;-81
2023/11/03 11:13:09;;;;;;;25.70;19.80;;;;;;;12.41;100.00;97489.98;109059;1273;22009;-82
2023/11/03 11:16:22;;;;;;;18.10;15.50;;;;;;;12.38;100.00;97484.70;109156;1277;22007;-83
2023/11/03 11:19:05;;;;;;;19.40;16.80;;;;;;;12.37;100.00;97485.30;109208;1277;24336;-82
2023/11/03 11:22:00;;;;;;;20.50;18.10;;;;;;;12.36;100.00;97480.67;109447;1277;21998;-83
2023/11/03 11:24:51;;;;;;;17.30;15.50;;;;;;;12.35;100.00;97478.50;109786;1273;21990;-85
2023/11/03 11:27:40;;;;;;;18.70;15.30;;;;;;;12.35;100.00;97478.84;109686;1272;22762;-82
2023/11/03 11:30:43;;;;;;;17.20;13.70;;;;;;;12.38;100.00;97477.60;109038;1279;22002;-82
2023/11/03 11:33:55;;;;;;;16.30;14.70;;;;;;;12.35;100.00;97468.63;108958;1279;21999;-86
2023/11/03 11:36:47;;;;;;;16.60;14.10;;;;;;;12.34;100.00;97467.11;108822;1286;22010;-83
2023/11/03 11:39:56;;;;;;;;;;;;;;;;;;;;;
2023/11/03 11:43:10;;;;;;;15.50;13.40;;;;;;;12.35;100.00;97460.36;108555;1286;22719;-84
2023/11/03 11:51:07;;;;;;;19.00;17.00;;;;;;;12.26;100.00;97445.69;108738;1285;22775;-83
2023/11/03 11:54:10;;;;;;;20.60;15.40;;;;;;;12.27;100.00;97445.42;108771;1280;22867;-82
2023/11/03 11:57:43;;;;;;;27.70;16.50;;;;;;;12.15;100.00;97429.08;108723;1276;23868;-83
2023/11/03 12:00:42;;;;;;;23.60;16.10;;;;;;;12.29;100.00;97441.73;108862;1286;23787;-83
2023/11/03 12:03:26;;;;;;;17.00;14.60;;;;;;;12.36;100.00;97435.14;108770;1286;23745;-82
2023/11/03 12:06:52;;;;;;;27.50;21.40;;;;;;;12.41;100.00;97427.06;108441;1289;22015;-82
2023/11/03 12:10:19;;;;;;;44.40;31.90;;;;;;;12.34;100.00;97413.40;108171;1292;22118;-83
2023/11/03 12:13:12;;;;;;;44.80;36.70;;;;;;;12.42;100.00;97420.52;100540;1281;10207247;-82
2023/11/03 12:16:16;;;;;;;18.60;16.30;;;;;;;12.44;100.00;97415.63;108287;1288;22016;-82
2023/11/03 12:19:10;;;;;;;;;;;;;;;12.40;100.00;97411.95;108274;1290;21983;-82
2023/11/03 12:22:31;;;;;;;15.80;11.50;;;;;;;12.25;100.00;97410.02;108322;1290;22017;-81
2023/11/03 12:25:16;;;;;;;14.70;11.10;;;;;;;12.20;100.00;97408.56;107913;1294;22032;-83
2023/11/03 12:27:59;;;;;;;13.30;11.00;;;;;;;12.17;100.00;97397.02;108380;1283;23732;-80
2023/11/03 12:31:04;;;;;;;15.30;9.70;;;;;;;12.21;100.00;97401.33;108638;1282;23547;-84
2023/11/03 12:34:04;;;;;;;15.50;11.40;;;;;;;12.16;100.00;97396.57;108314;1288;22793;-81
2023/11/03 12:37:57;;;;;;;24.60;18.30;;;;;;;12.11;100.00;97402.91;108174;1282;23735;-80
2023/11/03 12:41:16;;;;;;;31.70;25.00;;;;;;;12.06;100.00;97404.45;108096;1286;22784;-80
2023/11/03 12:44:21;;;;;;;30.50;22.40;;;;;;;12.02;100.00;97402.48;108343;1288;22022;-80
2023/11/03 12:51:12;;;;;;;12.80;14.00;;;;;;;11.89;100.00;97387.46;107784;1292;23314;-79
2023/11/03 12:54:02;;;;;;;17.80;13.90;;;;;;;11.92;100.00;97392.29;108108;1291;23073;-82
2023/11/03 12:57:02;;;;;;;19.70;12.30;;;;;;;11.95;100.00;97404.89;108171;1288;22003;-80
2023/11/03 13:00:23;;;;;;;20.70;13.60;;;;;;;11.86;100.00;97401.28;107413;1296;22024;-82
2023/11/03 13:02:58;;;;;;;21.10;14.00;;;;;;;11.84;100.00;97396.98;107237;1298;22016;-80
2023/11/03 13:05:49;;;;;;;19.90;12.80;;;;;;;11.82;100.00;97395.78;107602;1298;23532;-81
2023/11/03 13:08:53;;;;;;;15.70;11.20;;;;;;;11.76;100.00;97389.45;107478;1298;23067;-83
2023/11/03 13:11:39;;;;;;;24.40;16.10;;;;;;;11.73;100.00;97385.08;107638;1295;23113;-84
2023/11/03 13:14:20;;;;;;;18.30;14.20;;;;;;;11.70;100.00;97379.41;107842;1295;22154;-82
2023/11/03 13:17:12;;;;;;;14.80;11.90;;;;;;;11.64;100.00;97370.92;107918;1291;22019;-81
2023/11/03 13:20:17;;;;;;;20.50;13.30;;;;;;;11.60;100.00;97360.63;108017;1291;23775;-81
2023/11/03 13:23:03;;;;;;;12.60;11.30;;;;;;;11.56;100.00;97353.51;108099;1278;22520;-82